createdAt,value
2019-06-10T00:01:40.898Z,2.70
2019-06-10T00:04:12.476Z,2.50
2019-06-10T00:06:41.588Z,2.60
2019-06-10T00:09:11.728Z,2.67
2019-06-10T00:11:41.378Z,2.80
2019-06-10T00:14:10.815Z,3.03
2019-06-10T00:16:41.551Z,2.37
2019-06-10T00:19:12.791Z,2.90
2019-06-10T00:21:41.540Z,2.30
2019-06-10T00:24:11.772Z,2.53
2019-06-10T00:26:41.339Z,3.10
2019-06-10T00:29:11.911Z,2.47
2019-06-10T00:31:41.740Z,3.27
2019-06-10T00:34:12.342Z,2.80
2019-06-10T00:36:41.637Z,2.57
2019-06-10T00:39:13.350Z,3.03
2019-06-10T00:41:42.780Z,2.70
2019-06-10T00:44:12.784Z,2.87
2019-06-10T00:46:41.942Z,2.83
2019-06-10T00:49:14.349Z,2.90
2019-06-10T00:51:41.868Z,3.00
2019-06-10T00:54:15.289Z,3.10
2019-06-10T00:56:41.650Z,2.90
2019-06-10T00:59:14.768Z,3.10
2019-06-10T01:01:41.653Z,2.87
2019-06-10T01:04:14.394Z,3.27
2019-06-10T01:06:42.326Z,3.00
2019-06-10T01:09:13.536Z,3.57
2019-06-10T01:11:42.314Z,3.40
2019-06-10T01:14:12.561Z,3.40
2019-06-10T01:16:42.236Z,3.63
2019-06-10T01:19:12.767Z,3.23
2019-06-10T01:21:41.965Z,3.10
2019-06-10T01:24:12.071Z,3.10
2019-06-10T01:26:41.679Z,3.23
2019-06-10T01:29:12.718Z,3.60
2019-06-10T01:31:42.046Z,3.17
2019-06-10T01:34:12.396Z,3.17
2019-06-10T01:36:41.939Z,3.37
2019-06-10T01:39:11.992Z,3.50
2019-06-10T01:41:41.739Z,3.07
2019-06-10T01:44:12.721Z,3.70
2019-06-10T01:46:41.783Z,3.47
2019-06-10T01:49:12.020Z,3.17
2019-06-10T01:51:41.724Z,3.50
2019-06-10T01:54:12.424Z,3.67
2019-06-10T01:56:41.445Z,3.37
2019-06-10T01:59:12.534Z,3.73
2019-06-10T02:01:47.996Z,3.20
2019-06-10T02:04:18.212Z,3.70
2019-06-10T02:06:47.832Z,3.43
2019-06-10T02:09:18.418Z,3.67
2019-06-10T02:11:47.732Z,3.73
2019-06-10T02:14:18.211Z,3.47
2019-06-10T02:16:47.449Z,3.40
2019-06-10T02:19:17.464Z,3.53
2019-06-10T02:21:47.256Z,3.80
2019-06-10T02:24:17.610Z,3.43
2019-06-10T02:26:46.932Z,3.37
2019-06-10T02:29:17.250Z,3.80
2019-06-10T02:31:46.396Z,3.27
2019-06-10T02:34:19.655Z,3.57
2019-06-10T02:36:46.211Z,3.93
2019-06-10T02:39:21.476Z,3.47
2019-06-10T02:41:46.304Z,3.67
2019-06-10T02:44:20.985Z,3.70
2019-06-10T02:46:46.060Z,3.60
2019-06-10T02:49:30.054Z,4.00
2019-06-10T02:51:45.854Z,3.70
2019-06-10T02:54:18.095Z,3.97
2019-06-10T02:56:45.642Z,4.00
2019-06-10T02:59:16.241Z,3.70
2019-06-10T03:01:45.416Z,4.10
2019-06-10T03:04:16.186Z,3.33
2019-06-10T03:06:45.191Z,4.00
2019-06-10T03:09:16.113Z,3.50
2019-06-10T03:11:45.308Z,3.63
2019-06-10T03:14:15.663Z,3.67
2019-06-10T03:16:49.320Z,4.17
2019-06-10T03:19:37.064Z,3.67
2019-06-10T03:21:49.007Z,4.67
2019-06-10T03:24:19.061Z,4.43
2019-06-10T03:26:48.158Z,4.30
2019-06-10T03:29:18.337Z,4.00
2019-06-10T03:31:48.560Z,3.80
2019-06-10T03:34:20.109Z,3.97
2019-06-10T03:36:49.208Z,4.30
2019-06-10T03:39:18.631Z,3.77
2019-06-10T03:41:47.734Z,4.17
2019-06-10T03:44:16.925Z,3.97
2019-06-10T03:46:46.150Z,3.73
2019-06-10T03:49:15.183Z,4.13
2019-06-10T03:51:44.179Z,3.87
2019-06-10T03:54:13.323Z,3.90
2019-06-10T03:56:43.036Z,3.77
2019-06-10T03:59:12.468Z,3.93
2019-06-10T04:01:42.634Z,3.83
2019-06-10T04:04:13.017Z,4.37
2019-06-10T04:06:44.389Z,3.83
2019-06-10T04:09:13.586Z,3.83
2019-06-10T04:11:43.266Z,4.00
2019-06-10T04:14:13.002Z,3.87
2019-06-10T04:16:43.324Z,3.90
2019-06-10T04:19:13.324Z,3.93
2019-06-10T04:21:43.298Z,3.70
2019-06-10T04:24:12.980Z,3.90
2019-06-10T04:26:43.497Z,4.20
2019-06-10T04:29:13.198Z,4.00
2019-06-10T04:31:42.649Z,4.30
2019-06-10T04:34:12.605Z,3.87
2019-06-10T04:36:42.326Z,4.00
2019-06-10T04:39:12.533Z,4.30
2019-06-10T04:41:42.654Z,4.13
2019-06-10T04:44:13.131Z,3.93
2019-06-10T04:46:42.875Z,3.77
2019-06-10T04:49:13.113Z,4.17
2019-06-10T04:51:43.557Z,4.20
2019-06-10T04:54:13.447Z,3.83
2019-06-10T04:56:42.938Z,4.13
2019-06-10T04:59:12.479Z,4.00
2019-06-10T05:01:42.552Z,3.93
2019-06-10T05:04:12.556Z,4.70
2019-06-10T05:06:42.377Z,3.80
2019-06-10T05:09:12.381Z,4.33
2019-06-10T05:11:43.060Z,4.30
2019-06-10T05:14:13.307Z,3.97
2019-06-10T05:16:43.182Z,4.40
2019-06-10T05:19:12.986Z,4.10
2019-06-10T05:21:42.477Z,4.50
2019-06-10T05:24:12.418Z,4.17
2019-06-10T05:26:42.545Z,4.40
2019-06-10T05:29:12.220Z,4.50
2019-06-10T05:31:43.562Z,4.50
2019-06-10T05:34:13.147Z,4.40
2019-06-10T05:36:43.572Z,4.40
2019-06-10T05:39:12.932Z,4.47
2019-06-10T05:41:43.309Z,4.83
2019-06-10T05:44:13.608Z,4.30
2019-06-10T05:46:43.633Z,4.40
2019-06-10T05:49:13.063Z,4.60
2019-06-10T05:51:42.511Z,3.93
2019-06-10T05:54:12.800Z,4.10
2019-06-10T05:56:43.211Z,4.70
2019-06-10T05:59:12.983Z,4.50
2019-06-10T06:01:43.360Z,4.43
2019-06-10T06:04:12.902Z,4.33
2019-06-10T06:06:44.951Z,4.80
2019-06-10T06:09:13.171Z,4.77
2019-06-10T06:11:43.071Z,4.50
2019-06-10T06:14:13.223Z,4.37
2019-06-10T06:16:43.514Z,4.37
2019-06-10T06:19:12.750Z,4.80
2019-06-10T06:21:47.364Z,4.60
2019-06-10T06:24:13.088Z,4.63
2019-06-10T06:26:43.064Z,4.60
2019-06-10T06:29:13.180Z,4.67
2019-06-10T06:31:42.937Z,4.33
2019-06-10T06:34:13.833Z,4.57
2019-06-10T06:36:43.042Z,4.37
2019-06-10T06:39:12.873Z,4.80
2019-06-10T06:41:42.855Z,4.27
2019-06-10T06:44:13.026Z,4.30
2019-06-10T06:46:43.054Z,4.47
2019-06-10T06:49:12.968Z,4.80
2019-06-10T06:51:51.830Z,4.50
2019-06-10T06:54:13.258Z,4.40
2019-06-10T06:56:43.756Z,4.40
2019-06-10T06:59:13.519Z,4.37
2019-06-10T07:01:44.185Z,4.63
2019-06-10T07:04:13.999Z,4.80
2019-06-10T07:06:43.796Z,4.30
2019-06-10T07:09:13.505Z,4.50
2019-06-10T07:11:45.356Z,4.47
2019-06-10T07:14:15.020Z,4.60
2019-06-10T07:16:46.317Z,4.43
2019-06-10T07:19:14.803Z,4.30
2019-06-10T07:22:02.294Z,5.10
2019-06-10T07:24:14.297Z,4.60
2019-06-10T07:26:50.613Z,4.00
2019-06-10T07:29:13.959Z,4.47
2019-06-10T07:31:45.953Z,4.57
2019-06-10T07:34:13.672Z,4.73
2019-06-10T07:36:44.072Z,4.70
2019-06-10T07:39:13.590Z,4.17
2019-06-10T07:41:47.438Z,4.10
2019-06-10T07:44:13.503Z,4.40
2019-06-10T07:46:45.198Z,4.40
2019-06-10T07:49:13.684Z,4.00
2019-06-10T07:51:46.079Z,3.97
2019-06-10T07:54:13.530Z,4.60
2019-06-10T07:56:50.054Z,4.10
2019-06-10T07:59:13.638Z,4.60
2019-06-10T08:01:50.945Z,4.93
2019-06-10T08:04:13.467Z,4.20
2019-06-10T08:06:45.351Z,4.13
2019-06-10T08:09:13.283Z,4.33
2019-06-10T08:11:46.484Z,4.07
2019-06-10T08:14:13.575Z,4.13
2019-06-10T08:16:46.018Z,4.20
2019-06-10T08:19:29.926Z,4.20
2019-06-10T08:21:47.492Z,3.80
2019-06-10T08:24:15.148Z,3.70
2019-06-10T08:26:45.553Z,3.77
2019-06-10T08:29:14.800Z,3.70
2019-06-10T08:31:47.938Z,3.67
2019-06-10T08:34:14.596Z,3.70
2019-06-10T08:36:47.130Z,3.67
2019-06-10T08:39:15.979Z,3.77
2019-06-10T08:41:47.779Z,3.93
2019-06-10T08:44:15.751Z,3.60
2019-06-10T08:46:46.795Z,3.50
2019-06-10T08:49:15.713Z,3.47
2019-06-10T08:51:47.115Z,3.60
2019-06-10T08:54:15.533Z,3.25
2019-06-10T08:56:48.211Z,3.40
2019-06-10T08:59:15.677Z,3.97
2019-06-10T09:01:48.387Z,3.40
2019-06-10T09:04:15.625Z,3.23
2019-06-10T09:06:47.994Z,3.20
2019-06-10T09:09:15.428Z,3.27
2019-06-10T09:11:48.011Z,3.25
2019-06-10T09:14:15.097Z,3.47
2019-06-10T09:16:47.184Z,3.40
2019-06-10T09:19:14.909Z,3.67
2019-06-10T09:21:48.207Z,3.75
2019-06-10T09:24:14.482Z,3.50
2019-06-10T09:26:46.528Z,3.30
2019-06-10T09:29:14.348Z,3.52
2019-06-10T09:31:46.712Z,3.55
2019-06-10T09:34:14.626Z,3.90
2019-06-10T09:36:49.117Z,3.55
2019-06-10T09:39:14.862Z,3.80
2019-06-10T09:41:53.467Z,3.40
2019-06-10T09:44:14.766Z,3.50
2019-06-10T09:46:48.679Z,3.40
2019-06-10T09:49:17.142Z,3.52
2019-06-10T09:51:50.112Z,3.40
2019-06-10T09:54:16.774Z,3.35
2019-06-10T09:56:48.283Z,3.37
2019-06-10T09:59:16.458Z,3.50
2019-06-10T10:01:50.249Z,3.62
2019-06-10T10:04:16.296Z,3.65
2019-06-10T10:06:49.873Z,3.45
2019-06-10T10:09:16.655Z,3.90
2019-06-10T10:11:47.653Z,3.42
2019-06-10T10:14:16.323Z,3.22
2019-06-10T10:16:49.410Z,3.67
2019-06-10T10:19:16.043Z,3.72
2019-06-10T10:21:48.854Z,3.47
2019-06-10T10:24:15.863Z,3.77
2019-06-10T10:26:47.168Z,3.45
2019-06-10T10:29:15.772Z,3.15
2019-06-10T10:31:47.410Z,3.40
2019-06-10T10:34:15.431Z,3.40
2019-06-10T10:36:46.463Z,3.30
2019-06-10T10:39:15.183Z,3.33
2019-06-10T10:41:45.191Z,3.58
2019-06-10T10:44:14.933Z,3.70
2019-06-10T10:46:45.506Z,3.90
2019-06-10T10:49:14.984Z,3.87
2019-06-10T10:51:44.907Z,3.47
2019-06-10T10:54:28.632Z,2.92
2019-06-10T10:56:46.181Z,3.40
2019-06-10T10:59:15.427Z,3.55
2019-06-10T11:01:45.756Z,3.70
2019-06-10T11:04:15.077Z,3.47
2019-06-10T11:06:44.895Z,3.42
2019-06-10T11:09:16.900Z,3.45
2019-06-10T11:11:47.204Z,3.50
2019-06-10T11:14:16.476Z,3.60
2019-06-10T11:16:45.477Z,3.80
2019-06-10T11:19:14.735Z,3.37
2019-06-10T11:21:45.208Z,3.55
2019-06-10T11:24:18.838Z,3.42
2019-06-10T11:26:45.781Z,3.60
2019-06-10T11:29:14.869Z,3.55
2019-06-10T11:31:44.312Z,3.50
2019-06-10T11:34:13.502Z,3.92
2019-06-10T11:36:42.750Z,4.00
2019-06-10T11:39:13.394Z,3.87
2019-06-10T11:41:43.089Z,3.35
2019-06-10T11:44:12.801Z,3.98
2019-06-10T11:46:43.088Z,3.87
2019-06-10T11:49:12.671Z,3.50
2019-06-10T11:51:41.765Z,3.85
2019-06-10T11:54:12.822Z,3.70
2019-06-10T11:56:42.188Z,3.47
2019-06-10T11:59:13.422Z,3.40
2019-06-10T12:01:42.782Z,4.10
2019-06-10T12:04:12.832Z,3.60
2019-06-10T12:06:42.678Z,4.03
2019-06-10T12:09:13.778Z,3.52
2019-06-10T12:11:43.694Z,4.10
2019-06-10T12:14:13.130Z,3.95
2019-06-10T12:19:12.943Z,3.25
2019-06-10T12:21:43.461Z,3.52
2019-06-10T12:24:12.965Z,3.45
2019-06-10T12:26:43.469Z,3.70
2019-06-10T12:29:12.652Z,3.50
2019-06-10T12:31:42.759Z,3.17
2019-06-10T12:34:13.015Z,3.33
2019-06-10T12:36:42.126Z,3.33
2019-06-10T12:39:15.176Z,2.65
2019-06-10T12:41:42.937Z,3.22
2019-06-10T12:44:13.219Z,3.20
2019-06-10T12:46:43.138Z,2.80
2019-06-10T12:49:13.025Z,2.80
2019-06-10T12:51:44.045Z,3.10
2019-06-10T12:54:13.387Z,2.90
2019-06-10T12:56:43.061Z,3.15
2019-06-10T12:59:13.667Z,2.75
2019-06-10T13:01:44.887Z,2.70
2019-06-10T13:04:13.977Z,2.60
2019-06-10T13:06:46.177Z,2.70
2019-06-10T13:09:15.219Z,2.75
2019-06-10T13:11:44.264Z,2.80
2019-06-10T13:14:13.304Z,2.70
2019-06-10T13:16:43.271Z,3.00
2019-06-10T13:19:13.425Z,3.00
2019-06-10T13:21:42.789Z,2.80
2019-06-10T13:24:13.207Z,2.80
2019-06-10T13:26:43.200Z,2.75
2019-06-10T13:29:17.367Z,3.10
2019-06-10T13:31:43.891Z,2.40
2019-06-10T13:34:14.642Z,2.58
2019-06-10T13:36:44.009Z,2.60
2019-06-10T13:39:13.615Z,2.92
2019-06-10T13:41:43.742Z,3.00
2019-06-10T13:44:16.493Z,2.90
2019-06-10T13:46:43.976Z,2.80
2019-06-10T13:49:15.231Z,3.00
2019-06-10T13:51:44.092Z,2.67
2019-06-10T13:54:13.881Z,2.77
2019-06-10T13:56:47.559Z,2.83
2019-06-10T13:59:14.308Z,2.40
2019-06-10T14:01:43.588Z,2.77
2019-06-10T14:04:20.658Z,2.85
2019-06-10T14:06:49.554Z,2.50
2019-06-10T14:09:16.585Z,3.02
2019-06-10T14:11:45.056Z,2.60
2019-06-10T14:14:17.494Z,2.80
2019-06-10T14:16:45.060Z,2.85
2019-06-10T14:19:16.195Z,3.05
2019-06-10T14:21:44.765Z,3.00
2019-06-10T14:24:15.983Z,3.20
2019-06-10T14:26:45.627Z,3.10
2019-06-10T14:29:16.146Z,3.00
2019-06-10T14:31:47.737Z,3.10
2019-06-10T14:34:18.556Z,2.83
2019-06-10T14:36:47.041Z,3.20
2019-06-10T14:39:16.278Z,2.72
2019-06-10T14:41:45.425Z,2.80
2019-06-10T14:44:17.734Z,2.50
2019-06-10T14:46:45.426Z,2.70
2019-06-10T14:49:16.841Z,2.85
2019-06-10T14:51:45.178Z,3.00
2019-06-10T14:54:17.927Z,3.10
2019-06-10T14:56:52.828Z,3.10
2019-06-10T14:59:17.943Z,3.12
2019-06-10T15:01:46.550Z,2.87
2019-06-10T15:04:17.822Z,3.00
2019-06-10T15:06:46.600Z,3.20
2019-06-10T15:09:15.802Z,2.92
2019-06-10T15:11:44.734Z,2.87
2019-06-10T15:14:15.711Z,2.87
2019-06-10T15:16:44.238Z,3.00
2019-06-10T15:19:19.751Z,2.80
2019-06-10T15:21:43.879Z,3.02
2019-06-10T15:24:14.012Z,3.27
2019-06-10T15:26:43.078Z,2.72
2019-06-10T15:29:15.617Z,2.95
2019-06-10T15:31:42.980Z,2.92
2019-06-10T15:34:15.005Z,2.85
2019-06-10T15:36:43.333Z,3.12
2019-06-10T15:39:16.434Z,2.90
2019-06-10T15:41:43.113Z,3.20
2019-06-10T15:44:17.340Z,3.22
2019-06-10T15:46:43.258Z,2.90
2019-06-10T15:49:16.332Z,2.80
2019-06-10T15:51:43.722Z,3.15
2019-06-10T15:54:15.945Z,2.90
2019-06-10T15:56:51.895Z,2.70
2019-06-10T15:59:16.709Z,3.02
2019-06-10T16:01:45.798Z,3.00
2019-06-10T16:04:17.228Z,2.65
2019-06-10T16:06:45.415Z,3.05
2019-06-10T16:09:15.684Z,3.20
2019-06-10T16:11:45.093Z,2.45
2019-06-10T16:14:14.819Z,3.37
2019-06-10T16:16:44.116Z,3.47
2019-06-10T16:19:14.706Z,3.50
2019-06-10T16:21:43.792Z,5.03
2019-06-10T16:24:15.075Z,3.22
2019-06-10T16:26:44.071Z,3.08
2019-06-10T16:29:13.087Z,3.00
2019-06-10T16:31:42.707Z,2.77
2019-06-10T16:34:12.762Z,2.85
2019-06-10T16:36:42.786Z,3.37
2019-06-10T16:39:12.531Z,3.72
2019-06-10T16:41:43.063Z,3.65
2019-06-10T16:44:13.541Z,3.02
2019-06-10T16:46:43.212Z,3.37
2019-06-10T16:49:12.796Z,3.10
2019-06-10T16:51:42.967Z,3.00
2019-06-10T16:54:12.996Z,2.92
2019-06-10T16:56:43.554Z,3.40
2019-06-10T16:59:12.729Z,3.25
2019-06-10T17:01:42.747Z,3.42
2019-06-10T17:04:12.575Z,3.15
2019-06-10T17:06:42.229Z,3.10
2019-06-10T17:09:13.463Z,3.08
2019-06-10T17:11:42.826Z,2.98
2019-06-10T17:14:12.616Z,3.60
2019-06-10T17:16:42.105Z,3.40
2019-06-10T17:19:11.181Z,3.27
2019-06-10T17:21:42.174Z,3.10
2019-06-10T17:24:12.828Z,3.70
2019-06-10T17:26:42.562Z,3.35
2019-06-10T17:29:11.859Z,3.22
2019-06-10T17:31:42.595Z,3.30
2019-06-10T17:34:13.134Z,4.72
2019-06-10T17:36:42.690Z,4.42
2019-06-10T17:39:12.555Z,4.60
2019-06-10T17:41:42.687Z,5.17
2019-06-10T17:44:13.077Z,4.97
2019-06-10T17:46:42.755Z,4.70
2019-06-10T17:49:13.078Z,4.00
2019-06-10T17:51:43.245Z,3.95
2019-06-10T17:54:13.033Z,4.53
2019-06-10T17:56:42.750Z,5.08
2019-06-10T17:59:12.850Z,5.03
2019-06-10T18:01:42.459Z,4.60
2019-06-10T18:04:13.005Z,5.15
2019-06-10T18:06:42.566Z,5.30
2019-06-10T18:09:12.292Z,5.53
2019-06-10T18:11:42.855Z,5.55
2019-06-10T18:14:12.334Z,5.87
2019-06-10T18:16:42.680Z,6.37
2019-06-10T18:19:11.835Z,6.25
2019-06-10T18:21:40.898Z,6.70
2019-06-10T18:24:12.567Z,6.40
2019-06-10T18:26:42.370Z,6.63
2019-06-10T18:29:12.867Z,6.47
2019-06-10T18:31:42.831Z,6.20
2019-06-10T18:34:13.164Z,5.93
2019-06-10T18:36:42.818Z,5.67
2019-06-10T18:39:12.425Z,5.40
2019-06-10T18:41:42.148Z,4.77
2019-06-10T18:44:22.399Z,4.53
2019-06-10T18:46:43.551Z,4.80
2019-06-10T18:49:13.304Z,5.10
2019-06-10T18:51:43.449Z,4.80
2019-06-10T18:54:12.899Z,5.23
2019-06-10T18:56:43.065Z,5.73
2019-06-10T18:59:17.914Z,5.13
2019-06-10T19:01:43.915Z,6.17
2019-06-10T19:04:13.252Z,5.60
2019-06-10T19:06:43.178Z,5.47
2019-06-10T19:09:12.928Z,5.33
2019-06-10T19:11:43.366Z,5.40
2019-06-10T19:14:13.000Z,5.10
2019-06-10T19:16:42.988Z,5.50
2019-06-10T19:19:12.665Z,5.23
2019-06-10T19:21:44.147Z,4.93
2019-06-10T19:24:13.020Z,5.17
2019-06-10T19:26:44.886Z,5.73
2019-06-10T19:29:22.039Z,5.53
2019-06-10T19:31:45.992Z,6.70
2019-06-10T19:34:15.205Z,6.27
2019-06-10T19:36:44.314Z,6.00
2019-06-10T19:39:13.976Z,5.97
2019-06-10T19:41:46.768Z,5.57
2019-06-10T19:44:13.725Z,5.53
2019-06-10T19:46:43.054Z,6.20
2019-06-10T19:49:13.351Z,6.50
2019-06-10T19:51:44.783Z,6.37
2019-06-10T19:54:13.841Z,6.60
2019-06-10T19:56:43.783Z,6.73
2019-06-10T19:59:12.965Z,7.63
2019-06-10T20:01:46.591Z,6.60
2019-06-10T20:04:15.625Z,7.07
2019-06-10T20:06:50.158Z,7.20
2019-06-10T20:09:15.226Z,6.73
2019-06-10T20:11:47.270Z,5.83
2019-06-10T20:14:15.726Z,6.20
2019-06-10T20:16:46.044Z,6.00
2019-06-10T20:19:15.266Z,6.87
2019-06-10T20:21:46.599Z,6.33
2019-06-10T20:24:14.994Z,6.43
2019-06-10T20:26:46.379Z,6.73
2019-06-10T20:29:15.318Z,6.80
2019-06-10T20:31:47.039Z,7.43
2019-06-10T20:34:15.342Z,6.80
2019-06-10T20:36:45.681Z,6.97
2019-06-10T20:39:15.186Z,7.47
2019-06-10T20:41:50.413Z,7.27
2019-06-10T20:44:15.206Z,6.90
2019-06-10T20:46:46.157Z,6.80
2019-06-10T20:49:15.177Z,7.07
2019-06-10T20:52:01.494Z,7.17
2019-06-10T20:54:17.962Z,6.73
2019-06-10T20:56:49.136Z,6.43
2019-06-10T20:59:17.831Z,6.70
2019-06-10T21:01:49.044Z,6.53
2019-06-10T21:04:18.519Z,6.30
2019-06-10T21:06:49.555Z,6.73
2019-06-10T21:09:19.251Z,6.70
2019-06-10T21:11:49.759Z,6.67
2019-06-10T21:14:18.991Z,6.63
2019-06-10T21:16:48.388Z,6.73
2019-06-10T21:19:17.552Z,7.17
2019-06-10T21:21:48.636Z,7.03
2019-06-10T21:24:17.343Z,7.83
2019-06-10T21:26:47.921Z,6.90
2019-06-10T21:29:17.048Z,6.90
2019-06-10T21:31:48.315Z,6.93
2019-06-10T21:34:16.896Z,7.00
2019-06-10T21:36:45.780Z,7.83
2019-06-10T21:39:14.765Z,7.97
2019-06-10T21:41:45.268Z,9.13
2019-06-10T21:44:14.435Z,8.80
2019-06-10T21:46:45.721Z,8.83
2019-06-10T21:49:14.116Z,9.10
2019-06-10T21:51:45.733Z,8.80
2019-06-10T21:54:14.278Z,8.40
2019-06-10T21:56:44.533Z,8.70
2019-06-10T21:59:14.060Z,8.80
2019-06-10T22:01:44.625Z,8.27
2019-06-10T22:04:13.860Z,8.83
2019-06-10T22:06:43.850Z,8.87
2019-06-10T22:09:12.949Z,9.40
2019-06-10T22:11:42.362Z,9.20
2019-06-10T22:14:12.138Z,8.30
2019-06-10T22:16:42.191Z,8.40
2019-06-10T22:19:12.988Z,9.20
2019-06-10T22:21:43.091Z,9.10
2019-06-10T22:24:12.682Z,9.30
2019-06-10T22:26:42.537Z,9.30
2019-06-10T22:29:12.637Z,8.40
2019-06-10T22:31:42.899Z,8.90
2019-06-10T22:34:12.610Z,8.60
2019-06-10T22:36:42.323Z,8.77
2019-06-10T22:39:12.525Z,9.10
2019-06-10T22:41:42.645Z,8.53
2019-06-10T22:44:12.793Z,8.77
2019-06-10T22:46:42.501Z,7.93
2019-06-10T22:49:13.520Z,8.30
2019-06-10T22:51:42.980Z,9.00
2019-06-10T22:54:12.089Z,9.07
2019-06-10T22:56:42.383Z,9.13
2019-06-10T22:59:13.189Z,9.40
2019-06-10T23:01:42.501Z,8.90
2019-06-10T23:04:13.499Z,9.33
2019-06-10T23:06:42.785Z,9.67
2019-06-10T23:09:12.995Z,10.27
2019-06-10T23:11:42.457Z,10.67
2019-06-10T23:14:12.375Z,11.90
2019-06-10T23:16:42.767Z,11.17
2019-06-10T23:19:13.010Z,11.33
2019-06-10T23:21:42.503Z,11.87
2019-06-10T23:24:13.399Z,12.20
2019-06-10T23:26:42.683Z,12.27
2019-06-10T23:29:12.233Z,11.70
2019-06-10T23:31:51.822Z,13.30
2019-06-10T23:34:17.704Z,12.87
2019-06-10T23:36:43.203Z,13.37
2019-06-10T23:39:13.195Z,12.77
2019-06-10T23:41:43.391Z,12.83
2019-06-10T23:44:12.614Z,12.97
2019-06-10T23:46:42.569Z,13.10
2019-06-10T23:49:12.309Z,13.80
2019-06-10T23:51:42.298Z,14.43
2019-06-10T23:54:12.705Z,14.83
2019-06-10T23:56:42.818Z,14.87
2019-06-10T23:59:12.479Z,15.23
